createdAt,value
2022-10-15T00:01:09.683Z,5.75
2022-10-15T00:03:38.425Z,5.50
2022-10-15T00:06:07.136Z,6.25
2022-10-15T00:08:33.928Z,6.45
2022-10-15T00:11:27.540Z,5.88
2022-10-15T00:13:58.828Z,5.63
2022-10-15T00:16:27.571Z,5.20
2022-10-15T00:18:58.570Z,5.30
2022-10-15T00:21:25.874Z,5.53
2022-10-15T00:23:53.014Z,5.85
2022-10-15T00:26:23.586Z,5.78
2022-10-15T00:28:52.961Z,5.90
2022-10-15T00:31:21.156Z,5.25
2022-10-15T00:33:50.405Z,4.88
2022-10-15T00:36:20.269Z,4.40
2022-10-15T00:38:48.645Z,3.53
2022-10-15T00:41:18.692Z,3.28
2022-10-15T00:43:46.990Z,2.47
2022-10-15T00:46:37.430Z,2.05
2022-10-15T00:49:28.429Z,1.83
2022-10-15T00:52:01.130Z,1.80
2022-10-15T00:54:34.225Z,1.70
2022-10-15T00:57:01.302Z,1.40
2022-10-15T00:59:29.837Z,1.52
2022-10-15T01:01:59.923Z,1.30
2022-10-15T01:04:27.427Z,1.30
2022-10-15T01:06:54.304Z,1.50
2022-10-15T01:09:21.102Z,1.42
2022-10-15T01:11:50.935Z,1.70
2022-10-15T01:14:32.736Z,1.50
2022-10-15T01:17:06.912Z,1.45
2022-10-15T01:19:42.536Z,1.30
2022-10-15T01:22:30.061Z,1.20
2022-10-15T01:25:28.537Z,1.38
2022-10-15T01:28:08.767Z,1.05
2022-10-15T01:30:47.116Z,0.90
2022-10-15T01:33:25.845Z,0.90
2022-10-15T01:36:02.558Z,1.08
2022-10-15T01:39:13.317Z,1.10
2022-10-15T01:42:01.210Z,1.20
2022-10-15T01:44:41.980Z,1.15
2022-10-15T01:47:21.990Z,1.10
2022-10-15T01:49:52.953Z,1.08
2022-10-15T01:52:28.238Z,1.42
2022-10-15T01:54:56.226Z,1.30
2022-10-15T01:57:26.109Z,1.35
2022-10-15T01:59:54.584Z,0.90
2022-10-15T02:02:21.573Z,0.90
2022-10-15T02:04:48.624Z,0.90
2022-10-15T02:07:42.404Z,1.08
2022-10-15T02:10:21.448Z,1.00
2022-10-15T02:13:21.524Z,1.10
2022-10-15T02:16:13.190Z,1.02
2022-10-15T02:18:59.349Z,1.00
2022-10-15T02:21:41.938Z,1.30
2022-10-15T02:24:12.285Z,1.30
2022-10-15T02:26:41.020Z,1.10
2022-10-15T02:29:12.680Z,1.30
2022-10-15T02:31:43.803Z,1.20
2022-10-15T02:34:15.532Z,1.17
2022-10-15T02:36:43.047Z,1.30
2022-10-15T02:39:20.142Z,1.13
2022-10-15T02:41:48.309Z,1.33
2022-10-15T02:44:15.116Z,1.30
2022-10-15T02:46:41.913Z,1.58
2022-10-15T02:49:08.655Z,2.28
2022-10-15T02:51:36.714Z,2.08
2022-10-15T02:54:07.312Z,2.13
2022-10-15T02:56:35.053Z,2.10
2022-10-15T02:59:01.877Z,2.10
2022-10-15T03:01:28.641Z,2.22
2022-10-15T03:03:55.466Z,2.40
2022-10-15T03:06:22.399Z,2.60
2022-10-15T03:08:49.085Z,2.40
2022-10-15T03:11:15.820Z,2.20
2022-10-15T03:13:43.259Z,1.77
2022-10-15T03:16:11.707Z,2.30
2022-10-15T03:18:40.638Z,2.10
2022-10-15T03:21:07.840Z,1.90
2022-10-15T03:23:34.719Z,2.05
2022-10-15T03:26:03.226Z,1.90
2022-10-15T03:28:30.041Z,1.90
2022-10-15T03:30:57.058Z,1.77
2022-10-15T03:33:25.188Z,2.30
2022-10-15T03:35:52.984Z,1.70
2022-10-15T03:38:20.050Z,1.95
2022-10-15T03:40:46.879Z,1.83
2022-10-15T03:43:13.757Z,1.42
2022-10-15T03:45:40.608Z,1.85
2022-10-15T03:48:07.618Z,1.63
2022-10-15T03:50:34.905Z,1.98
2022-10-15T03:53:05.768Z,2.10
2022-10-15T03:55:32.777Z,1.67
2022-10-15T03:57:59.920Z,1.80
2022-10-15T04:00:26.818Z,2.08
2022-10-15T04:02:53.512Z,1.63
2022-10-15T04:05:20.201Z,1.73
2022-10-15T04:07:46.920Z,1.73
2022-10-15T04:10:13.797Z,2.13
2022-10-15T04:12:44.537Z,1.98
2022-10-15T04:15:11.296Z,1.73
2022-10-15T04:17:37.956Z,2.10
2022-10-15T04:20:05.785Z,1.42
2022-10-15T04:22:32.506Z,1.52
2022-10-15T04:24:59.220Z,1.20
2022-10-15T04:27:25.930Z,1.30
2022-10-15T04:29:54.632Z,1.40
2022-10-15T04:32:22.492Z,1.17
2022-10-15T04:34:49.437Z,1.30
2022-10-15T04:37:16.144Z,1.33
2022-10-15T04:39:43.240Z,1.23
2022-10-15T04:42:09.972Z,1.10
2022-10-15T04:44:39.010Z,1.15
2022-10-15T04:47:05.775Z,0.80
2022-10-15T04:49:32.481Z,1.30
2022-10-15T04:52:00.419Z,1.20
2022-10-15T04:57:13.757Z,1.45
2022-10-15T04:59:40.495Z,1.40
2022-10-15T05:02:07.445Z,1.40
2022-10-15T05:04:34.186Z,1.23
2022-10-15T05:07:00.903Z,1.58
2022-10-15T05:09:27.801Z,1.40
2022-10-15T05:11:56.011Z,1.17
2022-10-15T05:14:23.504Z,1.10
2022-10-15T05:16:51.374Z,1.33
2022-10-15T05:19:18.127Z,1.02
2022-10-15T05:21:44.985Z,1.23
2022-10-15T05:24:11.734Z,1.13
2022-10-15T05:26:38.641Z,1.15
2022-10-15T05:29:07.767Z,1.27
2022-10-15T05:31:35.132Z,1.17
2022-10-15T05:34:07.209Z,1.35
2022-10-15T05:36:35.686Z,1.20
2022-10-15T05:39:03.825Z,1.20
2022-10-15T05:41:30.722Z,1.45
2022-10-15T05:43:58.914Z,5.72
2022-10-15T05:46:26.258Z,1.48
2022-10-15T05:48:56.184Z,1.40
2022-10-15T05:51:23.768Z,1.00
2022-10-15T05:53:54.982Z,1.08
2022-10-15T05:56:22.013Z,1.20
2022-10-15T05:58:49.041Z,1.10
2022-10-15T06:01:17.369Z,1.30
2022-10-15T06:03:44.439Z,1.10
2022-10-15T06:06:22.511Z,1.25
2022-10-15T06:08:50.197Z,1.20
2022-10-15T06:11:17.435Z,1.13
2022-10-15T06:13:45.756Z,1.42
2022-10-15T06:16:15.565Z,2.08
2022-10-15T06:18:44.830Z,1.92
2022-10-15T06:21:12.433Z,1.20
2022-10-15T06:23:39.346Z,1.20
2022-10-15T06:26:08.483Z,1.05
2022-10-15T06:28:36.785Z,0.82
2022-10-15T06:31:04.858Z,1.20
2022-10-15T06:33:32.474Z,1.45
2022-10-15T06:36:04.493Z,1.20
2022-10-15T06:38:33.153Z,1.35
2022-10-15T06:41:04.221Z,1.17
2022-10-15T06:43:31.220Z,1.38
2022-10-15T06:46:01.228Z,1.13
2022-10-15T06:48:28.021Z,1.63
2022-10-15T06:50:54.778Z,1.52
2022-10-15T06:53:23.366Z,1.25
2022-10-15T06:55:50.121Z,1.35
2022-10-15T06:58:16.898Z,1.10
2022-10-15T07:00:43.567Z,1.30
2022-10-15T07:03:11.258Z,1.23
2022-10-15T07:05:37.922Z,1.50
2022-10-15T07:08:05.186Z,1.55
2022-10-15T07:10:32.375Z,1.60
2022-10-15T07:13:03.050Z,1.50
2022-10-15T07:15:29.902Z,1.38
2022-10-15T07:18:01.095Z,1.50
2022-10-15T07:20:32.684Z,1.80
2022-10-15T07:23:02.512Z,1.67
2022-10-15T07:25:29.585Z,1.48
2022-10-15T07:27:57.106Z,1.60
2022-10-15T07:30:27.877Z,1.30
2022-10-15T07:32:58.962Z,1.38
2022-10-15T07:35:26.793Z,1.65
2022-10-15T07:37:53.769Z,1.60
2022-10-15T07:40:20.653Z,1.20
2022-10-15T07:42:58.507Z,1.35
2022-10-15T07:45:26.081Z,1.25
2022-10-15T07:47:53.486Z,1.00
2022-10-15T07:50:21.150Z,0.88
2022-10-15T07:52:47.941Z,0.73
2022-10-15T07:55:15.079Z,1.00
2022-10-15T07:57:41.979Z,0.70
2022-10-15T08:00:09.321Z,0.60
2022-10-15T08:02:36.023Z,0.80
2022-10-15T08:05:02.930Z,0.70
2022-10-15T08:07:30.759Z,0.50
2022-10-15T08:09:57.460Z,0.60
2022-10-15T08:12:24.359Z,0.65
2022-10-15T08:14:51.486Z,0.70
2022-10-15T08:17:18.203Z,0.50
2022-10-15T08:19:44.874Z,0.80
2022-10-15T08:22:13.021Z,1.02
2022-10-15T08:24:39.701Z,0.80
2022-10-15T08:27:06.526Z,0.90
2022-10-15T08:29:33.185Z,0.90
2022-10-15T08:31:59.845Z,1.02
2022-10-15T08:34:26.584Z,1.10
2022-10-15T08:36:54.103Z,1.10
2022-10-15T08:39:20.816Z,1.05
2022-10-15T08:41:51.290Z,0.90
2022-10-15T08:44:26.049Z,0.70
2022-10-15T08:47:24.711Z,0.80
2022-10-15T08:49:55.015Z,0.85
2022-10-15T08:52:44.913Z,0.90
2022-10-15T08:55:21.064Z,0.80
2022-10-15T08:58:21.493Z,0.90
2022-10-15T09:00:54.614Z,0.60
2022-10-15T09:03:52.138Z,0.67
2022-10-15T09:06:26.145Z,0.47
2022-10-15T09:11:50.430Z,0.70
2022-10-15T09:14:24.832Z,0.60
2022-10-15T09:16:51.827Z,0.70
2022-10-15T09:19:22.478Z,6.53
2022-10-15T09:21:52.122Z,1.42
2022-10-15T09:24:23.343Z,1.92
2022-10-15T09:27:26.998Z,0.80
2022-10-15T09:30:45.658Z,1.13
2022-10-15T09:33:40.024Z,1.58
2022-10-15T09:36:19.485Z,1.10
2022-10-15T09:39:11.627Z,0.90
2022-10-15T09:41:59.647Z,0.82
2022-10-15T09:44:33.287Z,0.90
2022-10-15T09:47:00.023Z,0.80
2022-10-15T09:49:30.287Z,0.70
2022-10-15T09:54:58.534Z,0.50
2022-10-15T09:57:26.482Z,0.60
2022-10-15T09:59:55.676Z,0.57
2022-10-15T10:02:25.038Z,0.60
2022-10-15T10:04:52.744Z,0.40
2022-10-15T10:07:40.612Z,0.35
2022-10-15T10:10:26.961Z,0.43
2022-10-15T10:12:55.911Z,0.47
2022-10-15T10:15:22.638Z,0.40
2022-10-15T10:17:54.311Z,0.40
2022-10-15T10:20:24.913Z,0.50
2022-10-15T10:22:53.634Z,0.40
2022-10-15T10:25:26.575Z,0.40
2022-10-15T10:27:54.475Z,0.40
2022-10-15T10:30:23.753Z,0.60
2022-10-15T10:32:57.458Z,0.43
2022-10-15T10:35:26.313Z,0.60
2022-10-15T10:37:53.733Z,0.40
2022-10-15T10:40:29.993Z,0.40
2022-10-15T10:43:21.537Z,0.50
2022-10-15T10:46:16.377Z,0.47
2022-10-15T10:48:54.066Z,0.60
2022-10-15T10:51:23.817Z,0.40
2022-10-15T10:54:02.640Z,0.40
2022-10-15T10:56:37.738Z,0.30
2022-10-15T10:59:20.081Z,0.32
2022-10-15T11:01:47.642Z,0.50
2022-10-15T11:04:30.172Z,0.52
2022-10-15T11:07:29.223Z,0.40
2022-10-15T11:10:30.828Z,0.40
2022-10-15T11:13:32.933Z,0.40
2022-10-15T11:16:03.520Z,0.40
2022-10-15T11:19:13.753Z,0.40
2022-10-15T11:22:24.262Z,0.50
2022-10-15T11:25:18.819Z,0.77
2022-10-15T11:30:34.807Z,2.80
2022-10-15T11:33:35.845Z,0.30
2022-10-15T11:36:11.187Z,0.40
2022-10-15T11:39:05.798Z,0.52
2022-10-15T11:41:32.549Z,0.40
2022-10-15T11:44:08.252Z,0.50
2022-10-15T11:47:26.028Z,0.40
2022-10-15T11:50:24.439Z,0.38
2022-10-15T11:53:04.532Z,0.30
2022-10-15T11:56:03.783Z,0.30
2022-10-15T11:58:44.074Z,0.45
2022-10-15T12:01:33.280Z,0.30
2022-10-15T12:04:05.678Z,0.30
2022-10-15T12:06:37.461Z,1.17
2022-10-15T12:09:06.148Z,0.40
2022-10-15T12:11:50.061Z,0.57
2022-10-15T12:14:16.680Z,0.43
2022-10-15T12:17:02.578Z,0.50
2022-10-15T12:19:48.060Z,0.40
2022-10-15T12:22:52.944Z,1.17
2022-10-15T12:28:05.760Z,0.80
2022-10-15T12:30:34.782Z,0.50
2022-10-15T12:33:03.577Z,0.50
2022-10-15T12:35:38.725Z,0.50
2022-10-15T12:38:20.243Z,0.70
2022-10-15T12:40:55.584Z,0.40
2022-10-15T12:43:22.440Z,0.35
2022-10-15T12:45:51.041Z,1.33
2022-10-15T12:48:42.257Z,3.42
2022-10-15T12:51:24.083Z,1.08
2022-10-15T12:53:56.264Z,0.40
2022-10-15T12:56:25.145Z,0.40
2022-10-15T12:58:53.745Z,0.30
2022-10-15T13:01:20.609Z,0.32
2022-10-15T13:03:50.578Z,0.40
2022-10-15T13:06:20.189Z,0.40
2022-10-15T13:08:55.094Z,0.60
2022-10-15T13:11:26.437Z,0.40
2022-10-15T13:14:18.357Z,0.30
2022-10-15T13:16:46.844Z,1.95
2022-10-15T13:19:30.582Z,2.25
2022-10-15T13:22:03.065Z,0.70
2022-10-15T13:24:39.979Z,0.80
2022-10-15T13:27:16.017Z,1.10
2022-10-15T13:44:28.080Z,0.50
2022-10-15T13:50:26.145Z,0.80
2022-10-15T14:00:39.241Z,0.93
2022-10-15T14:06:41.853Z,1.77
2022-10-15T14:09:18.582Z,0.40
2022-10-15T14:11:45.944Z,0.30
2022-10-15T14:14:27.848Z,0.32
2022-10-15T14:16:56.530Z,0.47
2022-10-15T14:19:29.708Z,0.38
2022-10-15T14:22:01.294Z,0.40
2022-10-15T14:24:38.755Z,0.38
2022-10-15T14:27:20.059Z,0.40
2022-10-15T14:29:49.266Z,0.95
2022-10-15T14:32:46.097Z,0.60
2022-10-15T14:35:35.489Z,0.60
2022-10-15T14:38:06.100Z,0.50
2022-10-15T14:40:33.120Z,0.35
2022-10-15T14:43:14.666Z,0.50
2022-10-15T14:45:57.682Z,0.60
2022-10-15T14:48:28.200Z,0.40
2022-10-15T14:50:59.810Z,0.40
2022-10-15T14:53:36.869Z,0.52
2022-10-15T14:56:23.575Z,0.45
2022-10-15T14:58:54.628Z,0.50
2022-10-15T15:01:21.852Z,0.40
2022-10-15T15:03:51.838Z,0.70
2022-10-15T15:06:21.912Z,1.77
2022-10-15T15:08:48.892Z,0.50
2022-10-15T15:11:21.577Z,0.50
2022-10-15T15:13:49.846Z,0.45
2022-10-15T15:16:18.952Z,0.40
2022-10-15T15:18:51.900Z,0.40
2022-10-15T15:21:24.068Z,0.50
2022-10-15T15:23:51.143Z,0.50
2022-10-15T15:26:18.356Z,0.40
2022-10-15T15:28:45.119Z,0.80
2022-10-15T15:31:17.830Z,0.40
2022-10-15T15:33:44.761Z,0.40
2022-10-15T15:36:17.550Z,0.32
2022-10-15T15:38:47.478Z,0.50
2022-10-15T15:41:18.724Z,0.70
2022-10-15T15:43:46.089Z,0.85
2022-10-15T15:46:13.954Z,0.88
2022-10-15T15:48:40.807Z,0.65
2022-10-15T15:51:20.435Z,0.50
2022-10-15T15:53:47.382Z,0.60
2022-10-15T15:56:14.158Z,0.50
2022-10-15T15:58:41.839Z,0.47
2022-10-15T16:01:08.760Z,0.70
2022-10-15T16:03:36.641Z,0.70
2022-10-15T16:06:07.137Z,0.52
2022-10-15T16:08:35.451Z,0.60
2022-10-15T16:11:03.364Z,0.57
2022-10-15T16:13:30.656Z,0.70
2022-10-15T16:15:57.531Z,0.50
2022-10-15T16:18:27.258Z,0.65
2022-10-15T16:20:54.776Z,0.60
2022-10-15T16:23:21.585Z,0.70
2022-10-15T16:25:50.578Z,0.50
2022-10-15T16:28:17.380Z,0.75
2022-10-15T16:30:45.514Z,0.90
2022-10-15T16:33:14.066Z,0.70
2022-10-15T16:35:40.948Z,1.00
2022-10-15T16:38:08.469Z,0.68
2022-10-15T16:40:35.436Z,1.08
2022-10-15T16:43:02.267Z,0.70
2022-10-15T16:45:28.977Z,0.63
2022-10-15T16:47:55.777Z,1.83
2022-10-15T16:50:23.827Z,1.10
2022-10-15T16:52:50.564Z,0.95
2022-10-15T16:55:17.561Z,0.98
2022-10-15T16:57:44.525Z,0.98
2022-10-15T17:00:11.825Z,1.08
2022-10-15T17:02:38.542Z,0.95
2022-10-15T17:05:05.744Z,0.82
2022-10-15T17:07:32.470Z,1.10
2022-10-15T17:09:59.642Z,0.88
2022-10-15T17:12:26.594Z,1.15
2022-10-15T17:14:53.762Z,0.95
2022-10-15T17:17:20.563Z,1.23
2022-10-15T17:19:47.284Z,0.80
2022-10-15T17:22:14.059Z,1.20
2022-10-15T17:24:40.720Z,0.95
2022-10-15T17:27:07.437Z,1.05
2022-10-15T17:29:34.180Z,1.05
2022-10-15T17:32:02.599Z,1.25
2022-10-15T17:34:29.588Z,1.40
2022-10-15T17:36:56.970Z,2.08
2022-10-15T17:39:25.219Z,1.80
2022-10-15T17:41:52.240Z,1.30
2022-10-15T17:44:19.286Z,1.40
2022-10-15T17:49:18.754Z,1.33
2022-10-15T17:51:46.657Z,1.30
2022-10-15T17:54:13.654Z,1.20
2022-10-15T17:56:42.491Z,1.52
2022-10-15T17:59:12.134Z,1.58
2022-10-15T18:01:58.929Z,1.38
2022-10-15T18:04:30.166Z,1.33
2022-10-15T18:06:57.049Z,1.98
2022-10-15T18:09:24.957Z,2.33
2022-10-15T18:11:51.725Z,2.95
2022-10-15T18:16:47.298Z,2.63
2022-10-15T18:19:14.257Z,2.28
2022-10-15T18:21:41.928Z,2.78
2022-10-15T18:24:10.192Z,3.33
2022-10-15T18:26:36.884Z,2.13
2022-10-15T18:29:04.679Z,2.42
2022-10-15T18:31:34.585Z,2.35
2022-10-15T18:34:01.263Z,2.47
2022-10-15T18:36:31.400Z,2.38
2022-10-15T18:38:59.337Z,3.15
2022-10-15T18:41:28.602Z,3.75
2022-10-15T18:44:07.011Z,3.45
2022-10-15T18:46:34.784Z,3.70
2022-10-15T18:49:03.862Z,4.10
2022-10-15T18:51:31.584Z,4.30
2022-10-15T18:54:00.165Z,3.42
2022-10-15T18:56:28.385Z,3.38
2022-10-15T18:58:55.508Z,3.35
2022-10-15T19:01:34.128Z,3.47
2022-10-15T19:04:06.700Z,3.30
2022-10-15T19:06:36.556Z,3.10
2022-10-15T19:09:06.389Z,3.22
2022-10-15T19:11:34.833Z,2.88
2022-10-15T19:14:05.335Z,3.00
2022-10-15T19:16:32.138Z,3.90
2022-10-15T19:18:59.897Z,2.95
2022-10-15T19:21:26.640Z,2.88
2022-10-15T19:23:54.668Z,3.13
2022-10-15T19:26:21.412Z,2.47
2022-10-15T19:28:50.383Z,1.95
2022-10-15T19:31:24.427Z,1.58
2022-10-15T19:36:31.888Z,1.15
2022-10-15T19:39:03.186Z,1.40
2022-10-15T19:41:30.105Z,1.40
2022-10-15T19:43:57.482Z,1.40
2022-10-15T19:46:24.177Z,1.55
2022-10-15T19:48:50.889Z,1.80
2022-10-15T19:51:17.609Z,1.67
2022-10-15T19:53:44.355Z,2.13
2022-10-15T19:56:11.825Z,2.03
2022-10-15T19:58:38.668Z,1.95
2022-10-15T20:01:05.904Z,2.28
2022-10-15T20:06:21.239Z,1.92
2022-10-15T20:08:48.442Z,2.60
2022-10-15T20:11:15.468Z,3.35
2022-10-15T20:13:42.196Z,3.08
2022-10-15T20:16:11.291Z,1.67
2022-10-15T20:18:38.077Z,1.42
2022-10-15T20:21:09.892Z,1.33
2022-10-15T20:23:38.358Z,1.40
2022-10-15T20:26:07.210Z,1.20
2022-10-15T20:28:38.382Z,1.10
2022-10-15T20:31:07.077Z,1.50
2022-10-15T20:33:33.857Z,1.45
2022-10-15T20:36:05.996Z,1.95
2022-10-15T20:38:33.514Z,1.60
2022-10-15T20:41:00.618Z,1.90
2022-10-15T20:43:27.341Z,1.38
2022-10-15T20:45:56.519Z,1.60
2022-10-15T20:48:26.385Z,1.48
2022-10-15T20:50:54.945Z,1.85
2022-10-15T20:53:25.801Z,1.52
2022-10-15T20:55:52.752Z,1.63
2022-10-15T20:58:20.888Z,1.60
2022-10-15T21:00:47.717Z,1.45
2022-10-15T21:03:15.962Z,1.30
2022-10-15T21:05:42.822Z,1.83
2022-10-15T21:08:09.487Z,1.77
2022-10-15T21:10:36.173Z,1.45
2022-10-15T21:13:03.186Z,2.13
2022-10-15T21:15:31.624Z,1.73
2022-10-15T21:17:58.554Z,1.52
2022-10-15T21:20:27.229Z,1.90
2022-10-15T21:22:53.983Z,1.77
2022-10-15T21:25:20.679Z,2.10
2022-10-15T21:27:47.412Z,2.10
2022-10-15T21:30:14.140Z,2.00
2022-10-15T21:32:41.930Z,1.73
2022-10-15T21:35:09.222Z,2.17
2022-10-15T21:37:37.185Z,2.10
2022-10-15T21:40:06.004Z,2.42
2022-10-15T21:42:32.774Z,2.20
2022-10-15T21:44:59.602Z,2.05
2022-10-15T21:47:26.611Z,2.22
2022-10-15T21:49:53.555Z,1.90
2022-10-15T21:52:20.222Z,2.65
2022-10-15T21:54:46.966Z,2.05
2022-10-15T21:57:13.707Z,2.70
2022-10-15T21:59:42.946Z,2.42
2022-10-15T22:02:09.860Z,2.42
2022-10-15T22:04:36.774Z,2.33
2022-10-15T22:07:06.514Z,2.42
2022-10-15T22:09:33.366Z,2.55
2022-10-15T22:12:01.762Z,2.33
2022-10-15T22:14:28.604Z,2.50
2022-10-15T22:16:55.298Z,2.55
2022-10-15T22:19:22.622Z,2.33
2022-10-15T22:21:49.607Z,2.15
2022-10-15T22:24:20.359Z,2.15
2022-10-15T22:26:50.788Z,1.83
2022-10-15T22:29:25.433Z,2.30
2022-10-15T22:31:53.248Z,1.85
2022-10-15T22:34:20.913Z,1.60
2022-10-15T22:36:49.061Z,1.77
2022-10-15T22:39:18.028Z,1.73
2022-10-15T22:41:46.715Z,2.05
2022-10-15T22:44:16.563Z,1.80
2022-10-15T22:46:46.405Z,1.55
2022-10-15T22:49:14.354Z,1.60
2022-10-15T22:51:41.476Z,1.80
2022-10-15T22:54:08.477Z,1.95
2022-10-15T22:56:36.923Z,1.50
2022-10-15T22:59:04.606Z,2.00
2022-10-15T23:01:33.741Z,1.90
2022-10-15T23:04:03.724Z,2.42
2022-10-15T23:06:32.114Z,1.80
2022-10-15T23:08:58.934Z,2.08
2022-10-15T23:11:32.652Z,1.70
2022-10-15T23:14:04.976Z,1.90
2022-10-15T23:16:37.593Z,1.65
2022-10-15T23:19:07.000Z,2.03
2022-10-15T23:21:41.125Z,1.90
2022-10-15T23:24:08.906Z,2.05
2022-10-15T23:26:36.653Z,1.75
2022-10-15T23:29:08.949Z,1.95
2022-10-15T23:31:36.483Z,2.28
2022-10-15T23:34:04.887Z,1.83
2022-10-15T23:36:34.445Z,1.60
2022-10-15T23:39:04.755Z,1.90
2022-10-15T23:41:33.132Z,1.50
2022-10-15T23:44:00.173Z,1.73
2022-10-15T23:46:26.860Z,1.60
2022-10-15T23:48:53.641Z,1.52
2022-10-15T23:51:27.702Z,1.50
2022-10-15T23:53:56.138Z,1.58
2022-10-15T23:56:25.128Z,1.30
2022-10-15T23:58:57.734Z,1.42
